Time;durP1;ratioP1;P1;durP2;ratioP2;P2;SDS_P1;SDS_P2;PMS_P1;PMS_P2;Temp;Humidity;BMP_temperature;BMP_pressure;BME280_temperature;BME280_humidity;BME280_pressure;Samples;Min_cycle;Max_cycle;Signal;HPM_P1;HPM_P2
2022/03/14 00:01:17;;;;;;;21.48;14.28;;;1.70;80.70;;;;;;1902121;75;21026;-47
2022/03/14 00:03:59;;;;;;;18.62;12.60;;;1.70;80.10;;;;;;1902257;74;21129;-48
2022/03/14 00:06:27;;;;;;;21.27;12.58;;;1.70;80.40;;;;;;1901994;75;21038;-47
2022/03/14 00:09:06;;;;;;;19.23;12.43;;;1.70;80.30;;;;;;1903136;74;21108;-47
2022/03/14 00:11:35;;;;;;;21.13;14.27;;;1.80;80.50;;;;;;1923949;74;21022;-47
2022/03/14 00:14:08;;;;;;;20.55;13.55;;;1.80;80.80;;;;;;1924274;74;21073;-47
2022/03/14 00:16:39;;;;;;;22.22;13.93;;;1.80;79.50;;;;;;1923741;73;21104;-48
2022/03/14 00:19:05;;;;;;;24.00;14.80;;;1.80;80.10;;;;;;1923963;74;21083;-47
2022/03/14 00:21:39;;;;;;;20.90;12.13;;;1.80;80.40;;;;;;1924589;74;21005;-47
2022/03/14 00:24:10;;;;;;;21.80;12.80;;;1.80;80.30;;;;;;1924914;74;21014;-47
2022/03/14 00:26:39;;;;;;;28.15;15.53;;;1.80;80.50;;;;;;1924684;74;20997;-46
2022/03/14 00:29:09;;;;;;;21.02;13.40;;;1.80;80.70;;;;;;1924857;74;21030;-47
2022/03/14 00:31:38;;;;;;;20.97;13.55;;;1.90;80.70;;;;;;1924716;74;21136;-47
2022/03/14 00:34:09;;;;;;;20.82;14.33;;;1.90;80.10;;;;;;1924584;73;21088;-47
2022/03/14 00:36:41;;;;;;;21.12;14.87;;;1.90;80.60;;;;;;1924827;73;21041;-47
2022/03/14 00:39:09;;;;;;;18.77;13.15;;;1.90;80.60;;;;;;1924623;74;21042;-47
2022/03/14 00:41:39;;;;;;;25.88;15.20;;;1.90;80.60;;;;;;1924585;74;21021;-48
2022/03/14 00:44:08;;;;;;;25.97;15.65;;;1.80;80.60;;;;;;1924588;74;21072;-47
2022/03/14 00:46:39;;;;;;;21.37;13.88;;;1.80;80.10;;;;;;1924565;74;21025;-47
2022/03/14 00:49:11;;;;;;;21.57;14.38;;;1.80;80.30;;;;;;1924639;74;21084;-47
2022/03/14 00:51:41;;;;;;;21.05;15.60;;;1.80;80.30;;;;;;1924694;74;21092;-46
2022/03/14 00:54:10;;;;;;;22.60;14.65;;;1.80;80.80;;;;;;1924625;74;21029;-47
2022/03/14 00:56:39;;;;;;;21.95;14.87;;;1.80;81.00;;;;;;1924541;74;21029;-48
2022/03/14 00:59:09;;;;;;;25.68;15.58;;;1.80;80.60;;;;;;1924702;74;21108;-48
2022/03/14 01:01:39;;;;;;;21.97;14.70;;;1.70;80.60;;;;;;1924604;74;21025;-48
2022/03/14 01:04:08;;;;;;;24.10;15.35;;;1.70;80.90;;;;;;1924649;74;21026;-47
2022/03/14 01:06:37;;;;;;;27.70;16.15;;;1.80;81.30;;;;;;1924667;74;21091;-47
2022/03/14 01:09:07;;;;;;;23.62;14.87;;;1.70;80.60;;;;;;1924609;74;21382;-48
2022/03/14 01:11:37;;;;;;;25.17;15.55;;;1.70;81.00;;;;;;1904381;74;21062;-47
2022/03/14 01:14:07;;;;;;;22.62;15.32;;;1.70;81.30;;;;;;1902076;75;21027;-48
2022/03/14 01:16:37;;;;;;;22.27;16.20;;;1.70;80.90;;;;;;1902043;75;21030;-49
2022/03/14 01:19:11;;;;;;;22.95;16.55;;;1.70;81.00;;;;;;1902150;75;21007;-47
2022/03/14 01:21:38;;;;;;;26.77;16.02;;;1.70;81.30;;;;;;1901675;75;21018;-47
2022/03/14 01:24:08;;;;;;;21.17;14.45;;;1.70;81.30;;;;;;1902075;75;21038;-47
2022/03/14 01:26:38;;;;;;;16.10;9.20;;;1.70;80.50;;;;;;1902109;74;21030;-47
2022/03/14 01:29:07;;;;;;;24.15;14.87;;;1.70;80.70;;;;;;1902172;74;21084;-48
2022/03/14 01:31:37;;;;;;;25.60;15.15;;;1.50;80.20;;;;;;1902051;75;21019;-48
2022/03/14 01:34:08;;;;;;;23.18;15.98;;;1.40;81.00;;;;;;1901983;74;21096;-47
2022/03/14 01:36:38;;;;;;;26.42;14.33;;;1.40;81.20;;;;;;1902109;75;21002;-47
2022/03/14 01:39:07;;;;;;;18.05;10.93;;;1.30;81.10;;;;;;1902124;74;21014;-47
2022/03/14 01:41:37;;;;;;;23.57;14.60;;;1.30;81.20;;;;;;1902146;75;21046;-47
2022/03/14 01:44:06;;;;;;;19.90;13.35;;;1.20;81.20;;;;;;1902037;75;21082;-48
2022/03/14 01:46:37;;;;;;;21.17;15.58;;;1.20;81.70;;;;;;1901852;75;21029;-46
2022/03/14 01:49:06;;;;;;;22.95;15.32;;;1.20;81.80;;;;;;1902040;75;21027;-46
2022/03/14 01:51:35;;;;;;;21.80;14.63;;;1.20;81.90;;;;;;1902028;75;21539;-47
2022/03/14 01:54:05;;;;;;;33.02;17.87;;;1.10;81.60;;;;;;1901994;75;21088;-48
2022/03/14 01:56:35;;;;;;;28.45;16.12;;;1.10;81.30;;;;;;1902012;75;21018;-47
2022/03/14 01:59:05;;;;;;;26.12;15.60;;;1.00;81.50;;;;;;1901996;75;21135;-46
2022/03/14 02:01:35;;;;;;;22.20;15.03;;;0.90;81.80;;;;;;1902009;75;21096;-47
2022/03/14 02:04:08;;;;;;;27.45;15.55;;;0.90;82.50;;;;;;1902037;74;21112;-47
2022/03/14 02:06:35;;;;;;;26.82;16.93;;;0.90;82.50;;;;;;1901829;75;21477;-46
2022/03/14 02:09:05;;;;;;;24.72;16.50;;;1.00;82.40;;;;;;1902167;75;21080;-47
2022/03/14 02:11:35;;;;;;;27.42;18.07;;;1.00;82.20;;;;;;1902018;74;21089;-46
2022/03/14 02:14:06;;;;;;;28.38;17.48;;;1.10;82.20;;;;;;1902013;75;21160;-47
2022/03/14 02:16:35;;;;;;;22.65;16.37;;;1.10;82.40;;;;;;1902061;75;21523;-46
2022/03/14 02:19:05;;;;;;;18.57;13.28;;;1.20;81.70;;;;;;1902018;75;21277;-47
2022/03/14 02:21:35;;;;;;;26.12;16.73;;;1.20;82.20;;;;;;1902094;75;21027;-47
2022/03/14 02:24:04;;;;;;;28.77;15.83;;;1.10;82.10;;;;;;1901979;75;21069;-47
2022/03/14 02:26:44;;;;;;;24.25;15.70;;;1.20;81.80;;;;;;1901675;75;21026;-47
2022/03/14 02:29:13;;;;;;;22.00;15.90;;;1.10;81.60;;;;;;1902051;74;21038;-47
2022/03/14 02:31:45;;;;;;;23.73;17.17;;;1.00;82.10;;;;;;1902081;75;21084;-47
2022/03/14 02:34:13;;;;;;;22.67;15.65;;;1.00;82.00;;;;;;1902005;75;21128;-47
2022/03/14 02:36:43;;;;;;;27.85;17.82;;;0.90;82.20;;;;;;1902072;75;21461;-48
2022/03/14 02:39:12;;;;;;;22.50;15.60;;;0.90;82.00;;;;;;1902041;75;21076;-48
2022/03/14 02:41:42;;;;;;;27.55;18.07;;;0.80;82.20;;;;;;1901977;75;21088;-47
2022/03/14 02:44:11;;;;;;;27.52;17.12;;;0.80;82.20;;;;;;1902105;75;21101;-47
2022/03/14 02:46:41;;;;;;;28.90;17.50;;;0.80;82.40;;;;;;1902067;74;21526;-47
2022/03/14 02:49:11;;;;;;;26.80;15.48;;;0.80;82.90;;;;;;1901988;75;21026;-48
2022/03/14 02:51:43;;;;;;;28.25;16.67;;;0.80;82.30;;;;;;1901960;75;21084;-47
2022/03/14 02:54:12;;;;;;;28.83;17.35;;;0.70;82.60;;;;;;1902020;75;21030;-47
2022/03/14 02:56:42;;;;;;;17.35;11.73;;;0.80;83.00;;;;;;1902050;75;21072;-47
2022/03/14 02:59:12;;;;;;;24.18;16.17;;;0.80;82.40;;;;;;1902149;75;21154;-47
2022/03/14 03:01:41;;;;;;;25.55;15.30;;;0.70;82.40;;;;;;1901949;75;21191;-47
2022/03/14 03:04:11;;;;;;;30.15;16.50;;;0.70;82.60;;;;;;1902105;75;21027;-47
2022/03/14 03:06:40;;;;;;;21.55;13.40;;;0.70;82.50;;;;;;1902063;75;21018;-46
2022/03/14 03:09:09;;;;;;;26.45;14.18;;;0.60;82.60;;;;;;1902168;75;21002;-46
2022/03/14 03:11:40;;;;;;;24.63;15.68;;;0.60;83.00;;;;;;1910908;74;21049;-47
2022/03/14 03:14:10;;;;;;;29.75;17.35;;;0.60;83.20;;;;;;1924690;74;21030;-46
2022/03/14 03:16:39;;;;;;;23.55;15.53;;;0.60;83.20;;;;;;1924615;74;21080;-47
2022/03/14 03:19:09;;;;;;;27.55;16.42;;;0.70;82.90;;;;;;1924803;74;21507;-46
2022/03/14 03:21:39;;;;;;;23.12;14.98;;;0.70;82.90;;;;;;1924775;74;21022;-46
2022/03/14 03:24:09;;;;;;;20.77;11.48;;;0.70;82.60;;;;;;1924883;74;21127;-46
2022/03/14 03:26:39;;;;;;;21.57;13.95;;;0.70;82.90;;;;;;1924648;74;21083;-46
2022/03/14 03:29:13;;;;;;;27.32;15.45;;;0.60;82.20;;;;;;1924663;74;21166;-47
2022/03/14 03:31:40;;;;;;;25.23;14.73;;;0.50;82.40;;;;;;1923703;74;21050;-47
2022/03/14 03:34:11;;;;;;;23.92;16.67;;;0.40;82.50;;;;;;1923846;74;21074;-47
2022/03/14 03:36:40;;;;;;;25.70;16.60;;;0.40;82.90;;;;;;1924631;74;21030;-47
2022/03/14 03:39:10;;;;;;;27.42;17.20;;;0.40;83.10;;;;;;1924622;74;21037;-47
2022/03/14 03:41:39;;;;;;;25.50;17.07;;;0.30;83.00;;;;;;1924640;74;21025;-47
2022/03/14 03:44:09;;;;;;;29.85;17.32;;;0.30;83.10;;;;;;1924652;74;21026;-47
2022/03/14 03:46:39;;;;;;;29.70;17.42;;;0.30;83.10;;;;;;1924646;74;21063;-46
2022/03/14 03:49:08;;;;;;;25.95;16.32;;;0.30;83.30;;;;;;1924602;74;21021;-48
2022/03/14 03:51:39;;;;;;;18.23;13.85;;;0.30;83.50;;;;;;1924700;74;21099;-47
2022/03/14 03:54:08;;;;;;;21.25;14.03;;;0.30;83.50;;;;;;1924545;74;21095;-47
2022/03/14 03:56:38;;;;;;;16.07;11.03;;;0.30;83.40;;;;;;1924670;74;21006;-48
2022/03/14 03:59:08;;;;;;;16.65;11.05;;;0.30;83.30;;;;;;1924658;74;21030;-47
2022/03/14 04:01:37;;;;;;;26.68;15.53;;;0.30;83.60;;;;;;1924623;74;21017;-48
2022/03/14 04:04:07;;;;;;;24.92;16.65;;;0.30;83.60;;;;;;1924654;73;21088;-48
2022/03/14 04:06:36;;;;;;;27.40;15.25;;;0.40;83.60;;;;;;1924689;74;21026;-47
2022/03/14 04:09:06;;;;;;;25.40;15.28;;;0.40;83.60;;;;;;1924572;74;21034;-49
2022/03/14 04:11:36;;;;;;;20.15;13.40;;;0.50;83.20;;;;;;1922203;73;21089;-47
2022/03/14 04:14:05;;;;;;;25.17;15.80;;;0.50;83.00;;;;;;1902039;75;21073;-47
2022/03/14 04:16:36;;;;;;;27.67;17.67;;;0.40;83.20;;;;;;1901995;75;21065;-47
2022/03/14 04:19:05;;;;;;;20.17;14.85;;;0.40;83.30;;;;;;1902153;75;21135;-48
2022/03/14 04:21:35;;;;;;;25.92;16.57;;;0.50;83.70;;;;;;1902151;74;21170;-47
2022/03/14 04:24:05;;;;;;;22.15;13.78;;;0.50;83.30;;;;;;1902034;75;21185;-48
2022/03/14 04:26:34;;;;;;;22.95;13.38;;;0.60;83.60;;;;;;1902094;75;21006;-47
2022/03/14 04:29:04;;;;;;;25.05;16.23;;;0.60;83.30;;;;;;1902191;74;21092;-48
2022/03/14 04:31:33;;;;;;;25.25;15.03;;;0.50;83.00;;;;;;1902092;75;21026;-47
2022/03/14 04:34:02;;;;;;;24.70;15.88;;;0.50;83.00;;;;;;1902089;75;21102;-47
2022/03/14 04:36:32;;;;;;;25.25;16.15;;;0.50;83.10;;;;;;1902157;75;21003;-47
2022/03/14 04:39:04;;;;;;;23.00;15.00;;;0.50;83.70;;;;;;1902047;75;21026;-47
2022/03/14 04:41:37;;;;;;;25.88;16.30;;;0.50;83.70;;;;;;1902226;75;21027;-48
2022/03/14 04:44:02;;;;;;;27.07;17.27;;;0.60;83.40;;;;;;1900939;75;21537;-47
2022/03/14 04:46:32;;;;;;;27.85;15.05;;;0.60;83.30;;;;;;1902086;75;21030;-47
2022/03/14 04:49:02;;;;;;;19.30;9.73;;;0.70;83.20;;;;;;1902139;75;21092;-48
2022/03/14 04:51:32;;;;;;;31.77;15.65;;;0.70;83.20;;;;;;1902106;75;21030;-47
2022/03/14 04:54:01;;;;;;;22.98;13.28;;;0.70;83.10;;;;;;1902095;75;21014;-47
2022/03/14 04:56:31;;;;;;;20.97;12.28;;;0.70;82.60;;;;;;1902173;75;21461;-48
2022/03/14 04:59:01;;;;;;;21.60;14.18;;;0.80;82.60;;;;;;1902085;75;21058;-48
2022/03/14 05:01:30;;;;;;;12.53;8.73;;;0.70;82.10;;;;;;1902092;75;21026;-47
2022/03/14 05:03:59;;;;;;;23.57;14.15;;;0.70;82.40;;;;;;1902040;75;21030;-48
2022/03/14 05:06:29;;;;;;;27.50;12.80;;;0.70;82.20;;;;;;1902043;74;21084;-47
2022/03/14 05:08:59;;;;;;;22.48;14.93;;;0.70;82.70;;;;;;1902062;75;21042;-48
2022/03/14 05:11:28;;;;;;;20.08;12.55;;;0.70;82.80;;;;;;1902094;75;21027;-47
2022/03/14 05:13:58;;;;;;;18.80;11.48;;;0.80;82.90;;;;;;1901939;74;21104;-48
2022/03/14 05:16:27;;;;;;;25.57;15.30;;;0.80;81.50;;;;;;1902139;75;21026;-48
2022/03/14 05:18:57;;;;;;;18.12;11.73;;;0.70;82.00;;;;;;1902053;75;21414;-48
2022/03/14 05:21:26;;;;;;;16.67;11.70;;;0.70;81.60;;;;;;1902122;75;21089;-49
2022/03/14 05:23:55;;;;;;;31.45;14.58;;;0.70;81.90;;;;;;1901942;75;21131;-47
2022/03/14 05:26:24;;;;;;;26.87;15.25;;;0.70;81.90;;;;;;1902141;75;21027;-48
2022/03/14 05:28:54;;;;;;;21.75;11.10;;;0.70;82.50;;;;;;1901973;75;21501;-49
2022/03/14 05:31:23;;;;;;;18.73;12.28;;;0.80;81.90;;;;;;1902145;75;21105;-49
2022/03/14 05:33:53;;;;;;;21.68;12.15;;;0.80;81.90;;;;;;1902069;75;21003;-48
2022/03/14 05:36:22;;;;;;;19.52;11.95;;;0.80;81.70;;;;;;1902362;75;21026;-48
2022/03/14 05:38:51;;;;;;;19.48;12.60;;;0.80;81.80;;;;;;1902053;75;21104;-51
2022/03/14 05:41:21;;;;;;;12.35;8.23;;;0.80;82.00;;;;;;1902135;75;21014;-48
2022/03/14 05:43:50;;;;;;;24.20;13.38;;;0.90;81.40;;;;;;1902107;75;21023;-48
2022/03/14 05:46:20;;;;;;;21.75;13.38;;;0.80;80.90;;;;;;1902214;75;21087;-47
2022/03/14 05:48:49;;;;;;;20.75;13.62;;;0.80;81.40;;;;;;1902163;75;21092;-47
2022/03/14 05:51:19;;;;;;;20.12;12.18;;;0.90;81.80;;;;;;1902213;75;21100;-47
2022/03/14 05:53:48;;;;;;;12.90;8.80;;;0.90;81.50;;;;;;1902063;75;21077;-46
2022/03/14 05:56:18;;;;;;;21.37;11.95;;;1.00;81.60;;;;;;1902129;75;21100;-46
2022/03/14 05:58:47;;;;;;;18.48;11.53;;;1.10;81.50;;;;;;1901922;75;21088;-47
2022/03/14 06:01:17;;;;;;;14.58;10.90;;;1.20;81.70;;;;;;1902028;75;21198;-47
2022/03/14 06:03:46;;;;;;;17.00;9.83;;;1.30;81.20;;;;;;1902050;75;21031;-47
2022/03/14 06:06:16;;;;;;;13.22;9.33;;;1.30;80.30;;;;;;1902039;75;21057;-47
2022/03/14 06:08:45;;;;;;;15.48;9.25;;;1.40;79.90;;;;;;1901885;75;21065;-47
2022/03/14 06:11:14;;;;;;;17.15;11.88;;;1.30;79.40;;;;;;1901921;75;21026;-47
2022/03/14 06:13:44;;;;;;;14.85;10.55;;;1.30;80.40;;;;;;1912878;74;21107;-47
2022/03/14 06:16:14;;;;;;;18.17;12.53;;;1.30;78.90;;;;;;1924477;74;21087;-47
2022/03/14 06:18:43;;;;;;;11.93;8.68;;;1.30;80.80;;;;;;1924452;74;21116;-48
2022/03/14 06:21:13;;;;;;;15.32;9.70;;;1.50;80.90;;;;;;1924559;74;21029;-47
2022/03/14 06:23:42;;;;;;;14.35;10.38;;;1.60;80.00;;;;;;1924536;74;21029;-47
2022/03/14 06:26:12;;;;;;;16.30;10.68;;;1.60;78.50;;;;;;1924494;74;21101;-47
2022/03/14 06:28:41;;;;;;;11.85;7.40;;;1.60;78.60;;;;;;1924531;74;21002;-47
2022/03/14 06:31:11;;;;;;;9.68;7.90;;;1.60;77.60;;;;;;1924583;74;21079;-48
2022/03/14 06:33:40;;;;;;;16.62;11.18;;;1.60;77.90;;;;;;1924456;74;21113;-48
2022/03/14 06:36:10;;;;;;;9.00;7.05;;;1.60;78.40;;;;;;1924463;74;21075;-47
2022/03/14 06:38:39;;;;;;;13.70;5.70;;;1.70;76.80;;;;;;1924438;74;21025;-47
2022/03/14 06:41:10;;;;;;;11.08;6.97;;;1.60;76.20;;;;;;1924668;74;21115;-49
2022/03/14 06:43:39;;;;;;;15.18;8.58;;;1.60;77.00;;;;;;1924766;74;21037;-46
2022/03/14 06:46:09;;;;;;;16.67;10.78;;;1.60;78.20;;;;;;1924612;74;21087;-47
2022/03/14 06:48:40;;;;;;;12.55;9.68;;;1.70;77.30;;;;;;1924572;74;21087;-47
2022/03/14 06:51:10;;;;;;;11.12;7.03;;;1.80;78.10;;;;;;1924651;74;21033;-47
2022/03/14 06:53:39;;;;;;;16.87;10.75;;;1.90;76.10;;;;;;1924612;74;21021;-47
2022/03/14 06:56:08;;;;;;;15.03;10.38;;;2.00;77.10;;;;;;1924713;73;21029;-47
2022/03/14 06:58:38;;;;;;;12.95;8.70;;;2.00;77.10;;;;;;1924562;73;21017;-47
2022/03/14 07:01:08;;;;;;;13.03;8.68;;;2.10;77.40;;;;;;1924596;73;20998;-47
2022/03/14 07:03:38;;;;;;;15.88;10.55;;;2.20;77.20;;;;;;1924679;74;21009;-47
2022/03/14 07:06:07;;;;;;;16.77;8.05;;;2.20;75.10;;;;;;1924712;74;21436;-48
2022/03/14 07:08:36;;;;;;;8.48;5.95;;;2.20;75.60;;;;;;1924577;74;21029;-47
2022/03/14 07:11:06;;;;;;;12.75;9.30;;;2.10;74.50;;;;;;1924718;73;21515;-47
2022/03/14 07:13:35;;;;;;;12.58;8.00;;;2.20;76.70;;;;;;1920877;74;21120;-47
2022/03/14 07:16:05;;;;;;;11.95;7.67;;;2.20;75.00;;;;;;1902197;75;21042;-47
2022/03/14 07:18:34;;;;;;;10.53;6.62;;;2.30;76.30;;;;;;1902155;75;21023;-47
2022/03/14 07:21:03;;;;;;;13.32;8.63;;;2.40;75.30;;;;;;1902189;75;21089;-47
2022/03/14 07:23:34;;;;;;;13.30;9.48;;;2.40;73.80;;;;;;1902171;75;21046;-48
2022/03/14 07:26:03;;;;;;;17.50;9.90;;;2.40;74.60;;;;;;1902112;75;20999;-47
2022/03/14 07:28:33;;;;;;;10.10;7.40;;;2.40;75.80;;;;;;1902133;75;21030;-47
2022/03/14 07:31:02;;;;;;;9.18;6.72;;;2.50;73.40;;;;;;1902037;75;21006;-48
2022/03/14 07:33:34;;;;;;;10.32;5.87;;;2.40;72.50;;;;;;1902089;75;21030;-47
2022/03/14 07:36:03;;;;;;;10.43;7.17;;;2.30;71.80;;;;;;1902013;75;21092;-47
2022/03/14 07:38:32;;;;;;;14.87;9.68;;;2.20;72.00;;;;;;1902097;74;21022;-47
2022/03/14 07:41:03;;;;;;;10.03;7.03;;;2.10;72.90;;;;;;1902246;75;21042;-48
2022/03/14 07:43:32;;;;;;;13.53;8.70;;;2.10;72.70;;;;;;1902061;75;21066;-50
2022/03/14 07:46:05;;;;;;;14.13;8.33;;;2.10;73.40;;;;;;1902050;75;21030;-46
2022/03/14 07:48:34;;;;;;;13.68;9.33;;;2.00;74.30;;;;;;1902112;75;21007;-48
2022/03/14 07:51:04;;;;;;;7.20;5.45;;;2.10;73.10;;;;;;1902111;75;21073;-49
2022/03/14 07:53:33;;;;;;;15.15;10.15;;;2.10;72.30;;;;;;1902011;75;20990;-46
2022/03/14 07:56:04;;;;;;;16.17;10.30;;;2.20;74.70;;;;;;1901748;75;21092;-47
2022/03/14 07:58:34;;;;;;;11.90;8.83;;;2.20;72.50;;;;;;1902015;75;21159;-47
2022/03/14 08:01:03;;;;;;;11.53;9.00;;;2.30;73.50;;;;;;1902286;75;21080;-47
2022/03/14 08:03:32;;;;;;;12.35;6.87;;;2.40;72.90;;;;;;1902047;75;21022;-49
2022/03/14 08:06:02;;;;;;;12.37;8.00;;;2.50;73.20;;;;;;1902140;75;21054;-47
2022/03/14 08:08:31;;;;;;;16.57;8.98;;;2.60;72.70;;;;;;1902064;74;21097;-48
2022/03/14 08:11:04;;;;;;;16.40;10.35;;;2.80;72.90;;;;;;1902110;75;21481;-48
2022/03/14 08:13:32;;;;;;;10.53;6.33;;;3.00;72.40;;;;;;1901899;75;21450;-48
2022/03/14 08:16:02;;;;;;;12.75;9.10;;;3.10;71.10;;;;;;1901991;74;21096;-47
2022/03/14 08:18:31;;;;;;;14.00;9.18;;;3.10;69.80;;;;;;1902059;75;21022;-48
2022/03/14 08:21:01;;;;;;;13.32;7.87;;;3.10;71.80;;;;;;1902175;75;21026;-48
2022/03/14 08:23:30;;;;;;;14.00;8.18;;;3.00;71.70;;;;;;1902290;75;21018;-48
2022/03/14 08:26:00;;;;;;;30.43;10.30;;;3.00;70.80;;;;;;1902119;75;21023;-48
2022/03/14 08:28:31;;;;;;;10.00;5.50;;;3.20;79.70;;;;;;1901832;74;21081;-45
2022/03/14 11:36:28;;;;;;;14.47;7.83;;;3.70;61.50;;;;;;1973142;73;25940;-47
2022/03/14 11:38:57;;;;;;;12.47;8.35;;;3.70;65.20;;;;;;1948439;73;21430;-47
2022/03/14 11:41:27;;;;;;;9.58;6.60;;;3.80;64.10;;;;;;1948426;73;21034;-48
2022/03/14 11:43:58;;;;;;;10.60;6.65;;;3.70;62.50;;;;;;1948484;73;21492;-52
2022/03/14 11:46:28;;;;;;;11.93;8.45;;;3.70;63.90;;;;;;1948225;73;21057;-49
2022/03/14 11:49:14;;;;;;;14.23;8.63;;;3.70;67.00;;;;;;1948472;73;21082;-48
2022/03/14 11:51:44;;;;;;;12.25;8.53;;;3.80;68.00;;;;;;1948458;73;21082;-47
2022/03/14 11:54:15;;;;;;;12.13;8.93;;;3.90;66.00;;;;;;1948361;73;21085;-48
2022/03/14 11:56:57;;;;;;;16.62;9.35;;;4.10;66.40;;;;;;1930731;73;21152;-47
2022/03/14 11:59:28;;;;;;;16.87;9.75;;;4.10;67.00;;;;;;1914775;75;21101;-48
2022/03/14 12:02:00;;;;;;;13.70;9.85;;;4.20;65.30;;;;;;1914829;75;21070;-45
2022/03/14 12:04:30;;;;;;;12.78;8.40;;;4.20;65.90;;;;;;1914614;75;21040;-46
2022/03/14 12:07:17;;;;;;;14.70;10.20;;;4.10;66.90;;;;;;1914568;75;21094;-46
2022/03/14 12:09:49;;;;;;;14.15;9.88;;;4.10;67.50;;;;;;1914617;75;21111;-46
2022/03/14 12:12:29;;;;;;;15.10;9.95;;;4.10;67.40;;;;;;1914741;75;21024;-47
2022/03/14 12:14:59;;;;;;;17.25;10.85;;;4.20;67.60;;;;;;1914451;75;21056;-47
2022/03/14 12:17:31;;;;;;;12.60;9.43;;;4.30;68.20;;;;;;1914547;75;21176;-46
2022/03/14 12:20:03;;;;;;;13.00;8.90;;;4.40;68.40;;;;;;1914849;75;21048;-46
2022/03/14 12:22:43;;;;;;;12.85;8.78;;;4.50;67.80;;;;;;1914447;75;21036;-47
2022/03/14 12:25:11;;;;;;;10.85;8.60;;;4.60;66.70;;;;;;1913130;74;21168;-47
2022/03/14 12:27:43;;;;;;;12.88;9.75;;;4.60;66.90;;;;;;1914374;74;21067;-48
2022/03/14 12:30:22;;;;;;;17.23;10.88;;;4.60;64.50;;;;;;1914447;75;21109;-44
2022/03/14 12:32:57;;;;;;;16.07;9.73;;;4.60;63.50;;;;;;1914495;75;21036;-46
2022/03/14 12:35:33;;;;;;;9.40;6.45;;;4.60;65.20;;;;;;1903218;75;21098;-45
2022/03/14 12:38:18;;;;;;;15.93;9.85;;;4.70;62.40;;;;;;1877325;76;21054;-48
2022/03/14 12:40:47;;;;;;;13.35;8.08;;;4.60;65.10;;;;;;1878254;76;21559;-49
2022/03/14 12:43:32;;;;;;;12.25;9.40;;;4.50;65.50;;;;;;1878140;76;21117;-47
2022/03/14 12:46:02;;;;;;;13.25;8.80;;;4.50;66.10;;;;;;1876505;76;21148;-47
2022/03/14 12:48:38;;;;;;;14.68;8.98;;;4.40;63.90;;;;;;1877726;76;21034;-46
2022/03/14 12:51:08;;;;;;;15.83;9.90;;;4.30;66.80;;;;;;1876143;76;21477;-47
2022/03/14 12:53:40;;;;;;;12.50;9.25;;;4.40;67.00;;;;;;1877829;76;21175;-45
2022/03/14 12:56:24;;;;;;;12.45;8.98;;;4.40;65.20;;;;;;1877790;76;21443;-46
2022/03/14 12:58:56;;;;;;;13.32;7.90;;;4.40;67.10;;;;;;1877426;76;21104;-47
2022/03/14 13:01:27;;;;;;;18.40;11.70;;;4.50;62.00;;;;;;1877760;76;21167;-46
2022/03/14 13:06:33;;;;;;;15.53;10.40;;;4.60;62.60;;;;;;1958197;73;25751;-45
2022/03/14 13:09:03;;;;;;;14.85;8.90;;;4.60;63.90;;;;;;1917781;75;21145;-44
2022/03/14 13:11:38;;;;;;;14.25;9.38;;;4.50;62.30;;;;;;1917751;75;21160;-45
2022/03/14 13:14:07;;;;;;;;;;;4.60;62.60;;;;;;1918962;74;21015;-45
2022/03/14 13:16:38;;;;;;;11.15;7.75;;;4.50;62.50;;;;;;1917491;75;20266;-47
2022/03/14 13:19:18;;;;;;;11.70;7.75;;;4.50;62.50;;;;;;1917630;75;21132;-47
2022/03/14 13:21:50;;;;;;;12.85;5.15;;;4.50;61.70;;;;;;1917678;75;21092;-46
2022/03/14 13:24:20;;;;;;;17.52;10.10;;;4.40;59.20;;;;;;1917450;75;21160;-46
2022/03/14 13:26:50;;;;;;;14.55;10.10;;;4.40;60.60;;;;;;1917645;75;21023;-46
2022/03/14 13:29:20;;;;;;;15.68;10.05;;;4.40;60.50;;;;;;1894901;75;21084;-45
2022/03/14 13:31:51;;;;;;;11.70;8.58;;;4.40;62.10;;;;;;1916883;74;21094;-48
2022/03/14 13:34:29;;;;;;;11.75;7.45;;;4.40;61.90;;;;;;1917152;75;21082;-46
2022/03/14 13:36:53;;;;;;;11.25;8.98;;;4.40;59.80;;;;;;1916344;74;21086;-48
2022/03/14 13:39:24;;;;;;;16.23;8.40;;;4.30;61.40;;;;;;1917516;73;21141;-49
2022/03/14 13:41:57;;;;;;;22.17;11.63;;;4.20;60.60;;;;;;1918480;75;21112;-49
2022/03/14 13:44:26;;;;;;;12.70;10.13;;;4.20;63.00;;;;;;1918443;75;21535;-49
2022/03/14 13:47:00;;;;;;;15.25;11.50;;;4.10;64.60;;;;;;1918379;75;20987;-54
2022/03/14 13:49:30;;;;;;;18.42;11.93;;;4.20;65.60;;;;;;1918465;75;21062;-54
2022/03/14 13:52:03;;;;;;;15.20;9.98;;;4.20;65.70;;;;;;1918393;75;21018;-53
2022/03/14 13:54:37;;;;;;;17.57;11.48;;;4.20;64.70;;;;;;1918242;75;21505;-52
2022/03/14 13:57:10;;;;;;;16.73;11.97;;;4.20;65.30;;;;;;1916668;74;21023;-51
2022/03/14 13:59:47;;;;;;;15.72;10.30;;;4.20;65.80;;;;;;1918575;75;21453;-52
2022/03/14 14:02:25;;;;;;;15.93;10.18;;;4.20;64.90;;;;;;1918448;73;21532;-51
2022/03/14 14:04:54;;;;;;;11.35;8.45;;;4.20;65.30;;;;;;1899980;74;20998;-50
2022/03/14 14:07:29;;;;;;;15.85;10.13;;;4.20;64.30;;;;;;1925487;74;21023;-52
2022/03/14 14:09:58;;;;;;;19.45;12.23;;;4.20;64.60;;;;;;1925698;74;21015;-52
2022/03/14 14:12:32;;;;;;;12.63;8.63;;;4.20;65.00;;;;;;1925350;74;21038;-53
2022/03/14 14:15:04;;;;;;;13.48;9.08;;;4.20;63.40;;;;;;1925620;74;21011;-54
2022/03/14 14:17:36;;;;;;;19.00;10.38;;;4.20;63.80;;;;;;1924790;74;21081;-51
2022/03/14 14:20:19;;;;;;;18.90;10.45;;;4.20;64.50;;;;;;1924823;74;21555;-52
2022/03/14 14:22:54;;;;;;;16.20;9.85;;;4.20;65.30;;;;;;1924708;74;21018;-54
2022/03/14 14:25:25;;;;;;;;;;;4.20;65.10;;;;;;1927842;74;21011;-51
2022/03/14 14:28:00;;;;;;;14.80;9.25;;;4.20;64.10;;;;;;1924713;74;20097;-49
2022/03/14 14:30:30;;;;;;;13.62;9.20;;;4.10;65.10;;;;;;1924547;74;21023;-53
2022/03/14 14:32:59;;;;;;;14.45;10.00;;;4.10;66.40;;;;;;1924799;74;21084;-51
2022/03/14 14:35:29;;;;;;;15.53;10.30;;;4.10;67.10;;;;;;1924741;74;21550;-51
2022/03/14 14:37:58;;;;;;;15.20;9.80;;;4.10;67.00;;;;;;1924762;74;21190;-51
2022/03/14 14:40:29;;;;;;;19.90;12.58;;;4.10;66.30;;;;;;1924804;74;21089;-52
2022/03/14 14:42:59;;;;;;;19.92;11.73;;;4.10;67.50;;;;;;1924833;74;21055;-51
2022/03/14 14:45:28;;;;;;;21.42;10.90;;;4.20;67.90;;;;;;1924731;74;21026;-51
2022/03/14 14:47:58;;;;;;;19.05;11.70;;;4.30;68.30;;;;;;1924888;74;21023;-51
2022/03/14 14:50:28;;;;;;;17.48;11.30;;;4.30;68.60;;;;;;1924794;74;21034;-51
2022/03/14 14:52:57;;;;;;;14.40;9.68;;;4.40;69.20;;;;;;1924783;74;21096;-50
2022/03/14 14:55:27;;;;;;;16.02;9.90;;;4.50;69.20;;;;;;1924757;74;21022;-48
2022/03/14 14:57:58;;;;;;;15.08;9.80;;;4.60;68.50;;;;;;1924646;74;21043;-49
2022/03/14 15:00:28;;;;;;;19.07;9.98;;;4.60;69.30;;;;;;1924773;74;21018;-53
2022/03/14 15:02:58;;;;;;;16.90;10.45;;;4.60;69.50;;;;;;1924770;74;21089;-52
2022/03/14 15:05:27;;;;;;;16.32;10.32;;;4.70;69.90;;;;;;1922949;74;21003;-52
2022/03/14 15:07:57;;;;;;;13.48;10.48;;;4.70;70.00;;;;;;1905221;75;21105;-53
2022/03/14 15:10:26;;;;;;;15.78;10.20;;;4.80;70.30;;;;;;1905217;75;20995;-52
2022/03/14 15:12:57;;;;;;;14.53;9.70;;;4.80;70.20;;;;;;1905293;75;21022;-51
2022/03/14 15:15:27;;;;;;;16.90;9.75;;;4.80;70.70;;;;;;1905357;75;21116;-50
2022/03/14 15:17:57;;;;;;;15.70;10.15;;;4.80;70.90;;;;;;1905184;75;21019;-50
2022/03/14 15:20:28;;;;;;;15.20;10.13;;;4.80;70.70;;;;;;1905324;75;21105;-51
2022/03/14 15:22:57;;;;;;;14.60;9.40;;;4.80;70.90;;;;;;1905243;75;21544;-52
2022/03/14 15:25:27;;;;;;;19.23;10.88;;;4.80;70.80;;;;;;1905204;75;21120;-49
2022/03/14 15:27:56;;;;;;;19.80;10.75;;;4.70;71.10;;;;;;1905163;74;20996;-52
2022/03/14 15:30:25;;;;;;;15.48;10.38;;;4.70;71.60;;;;;;1905239;74;21028;-49
2022/03/14 15:32:58;;;;;;;12.30;7.85;;;4.70;71.90;;;;;;1905144;75;21079;-51
2022/03/14 15:35:26;;;;;;;9.15;7.08;;;4.70;71.00;;;;;;1905205;74;21109;-50
2022/03/14 15:37:58;;;;;;;8.00;5.85;;;4.60;67.80;;;;;;1905082;74;21034;-52
2022/03/14 15:40:28;;;;;;;6.10;4.78;;;4.40;67.70;;;;;;1905264;75;20999;-52
2022/03/14 15:42:58;;;;;;;5.90;4.35;;;4.20;68.50;;;;;;1905331;74;21093;-51
2022/03/14 15:45:27;;;;;;;5.22;4.67;;;4.10;69.80;;;;;;1905267;75;21019;-53
2022/03/14 15:48:00;;;;;;;6.20;4.58;;;4.00;70.30;;;;;;1905223;75;21536;-50
2022/03/14 15:50:28;;;;;;;4.42;3.42;;;3.90;68.90;;;;;;1905201;74;21024;-53
2022/03/14 15:52:57;;;;;;;5.58;4.37;;;3.80;66.80;;;;;;1905238;75;20996;-52
2022/03/14 15:55:26;;;;;;;5.78;3.60;;;3.70;66.30;;;;;;1905312;74;21599;-51
2022/03/14 15:57:57;;;;;;;6.17;4.10;;;3.60;66.70;;;;;;1905226;75;21089;-51
2022/03/14 16:00:26;;;;;;;5.80;4.53;;;3.50;68.20;;;;;;1905378;75;21454;-50
2022/03/14 16:02:57;;;;;;;4.80;4.15;;;3.50;68.80;;;;;;1905358;75;21108;-49
2022/03/14 16:05:27;;;;;;;4.40;3.72;;;3.40;69.40;;;;;;1905342;75;21016;-50
2022/03/14 16:07:56;;;;;;;4.37;3.33;;;3.40;67.10;;;;;;1921855;74;21018;-50